createdAt,value
2022-08-27T00:00:06.368Z,101196.63
2022-08-27T00:01:17.045Z,101194.94
2022-08-27T00:02:22.913Z,101200.34
2022-08-27T00:03:31.562Z,101199.69
2022-08-27T00:04:36.469Z,101193.44
2022-08-27T00:05:39.604Z,101194.28
2022-08-27T00:06:43.222Z,101198.00
2022-08-27T00:07:50.082Z,101196.16
2022-08-27T00:08:56.087Z,101198.69
2022-08-27T00:10:00.406Z,101190.94
2022-08-27T00:11:01.993Z,101197.50
2022-08-27T00:12:08.019Z,101193.97
2022-08-27T00:13:09.943Z,101196.66
2022-08-27T00:14:13.011Z,101192.94
2022-08-27T00:15:17.850Z,101190.25
2022-08-27T00:16:21.669Z,101187.56
2022-08-27T00:17:35.104Z,101189.41
2022-08-27T00:18:38.845Z,101196.66
2022-08-27T00:19:47.243Z,101191.25
2022-08-27T00:20:53.433Z,101185.06
2022-08-27T00:21:58.316Z,101187.91
2022-08-27T00:23:06.443Z,101192.81
2022-08-27T00:24:09.062Z,101187.63
2022-08-27T00:25:12.301Z,101193.00
2022-08-27T00:26:18.204Z,101192.16
2022-08-27T00:27:23.430Z,101194.38
2022-08-27T00:28:29.640Z,101186.44
2022-08-27T00:29:31.799Z,101193.69
2022-08-27T00:30:34.683Z,101199.06
2022-08-27T00:31:36.740Z,101188.47
2022-08-27T00:32:40.360Z,101194.88
2022-08-27T00:33:43.431Z,101189.69
2022-08-27T00:34:46.308Z,101191.69
2022-08-27T00:35:48.342Z,101193.38
2022-08-27T00:36:53.026Z,101194.56
2022-08-27T00:37:56.275Z,101192.53
2022-08-27T00:38:59.496Z,101189.00
2022-08-27T00:40:01.648Z,101194.38
2022-08-27T00:41:05.964Z,101188.34
2022-08-27T00:42:08.267Z,101192.72
2022-08-27T00:43:11.195Z,101193.72
2022-08-27T00:44:13.344Z,101200.13
2022-08-27T00:45:19.675Z,101189.34
2022-08-27T00:46:25.252Z,101191.19
2022-08-27T00:47:30.972Z,101188.34
2022-08-27T00:48:35.892Z,101189.19
2022-08-27T00:49:42.600Z,101196.22
2022-08-27T00:50:47.932Z,101182.94
2022-08-27T00:51:58.351Z,101199.13
2022-08-27T00:53:05.222Z,101207.84
2022-08-27T00:54:09.359Z,101195.41
2022-08-27T00:55:17.956Z,101195.41
2022-08-27T00:56:24.575Z,101193.72
2022-08-27T00:57:28.097Z,101189.84
2022-08-27T00:58:32.580Z,101192.72
2022-08-27T00:59:35.205Z,101197.25
2022-08-27T01:00:37.359Z,101188.34
2022-08-27T01:01:59.920Z,101192.22
2022-08-27T01:03:01.591Z,101191.72
2022-08-27T01:04:06.425Z,101181.97
2022-08-27T01:05:10.752Z,101185.66
2022-08-27T01:06:16.291Z,101179.63
2022-08-27T01:07:19.095Z,101189.72
2022-08-27T01:08:25.768Z,101191.38
2022-08-27T01:09:28.196Z,101189.72
2022-08-27T01:10:30.998Z,101188.03
2022-08-27T01:11:33.223Z,101187.88
2022-08-27T01:12:37.327Z,101186.19
2022-08-27T01:13:54.446Z,101179.31
2022-08-27T01:15:04.739Z,101183.84
2022-08-27T01:16:08.419Z,101184.69
2022-08-27T01:17:12.169Z,101188.38
2022-08-27T01:18:14.936Z,101183.00
2022-08-27T01:19:28.697Z,101181.31
2022-08-27T01:20:42.304Z,101183.16
2022-08-27T01:21:51.196Z,101185.03
2022-08-27T01:23:02.718Z,101181.66
2022-08-27T01:24:13.856Z,101182.66
2022-08-27T01:25:19.321Z,101187.03
2022-08-27T01:26:22.887Z,101185.34
2022-08-27T01:27:28.258Z,101186.22
2022-08-27T01:28:37.820Z,101193.28
2022-08-27T01:29:40.845Z,101187.03
2022-08-27T01:30:44.144Z,101182.66
2022-08-27T01:31:46.127Z,101179.16
2022-08-27T01:32:50.944Z,101174.78
2022-08-27T01:33:58.229Z,101178.31
2022-08-27T01:35:02.236Z,101178.13
2022-08-27T01:36:05.148Z,101178.97
2022-08-27T01:37:08.791Z,101176.28
2022-08-27T01:38:12.012Z,101165.50
2022-08-27T01:39:26.928Z,101160.97
2022-08-27T01:40:30.595Z,101160.13
2022-08-27T01:41:33.373Z,101170.88
2022-08-27T01:42:38.811Z,101163.81
2022-08-27T01:43:41.367Z,101170.03
2022-08-27T01:44:46.369Z,101168.38
2022-08-27T01:45:50.713Z,101164.84
2022-08-27T01:46:52.713Z,101164.66
2022-08-27T01:47:56.763Z,101160.13
2022-08-27T01:48:58.504Z,101165.16
2022-08-27T01:50:02.347Z,101161.47
2022-08-27T01:51:04.670Z,101158.56
2022-08-27T01:52:07.429Z,101155.88
2022-08-27T01:53:15.533Z,101153.03
2022-08-27T01:54:19.844Z,101152.19
2022-08-27T01:55:26.362Z,101152.03
2022-08-27T01:56:33.372Z,101150.34
2022-08-27T01:57:39.830Z,101149.31
2022-08-27T01:58:43.631Z,101153.69
2022-08-27T01:59:46.652Z,101143.09
2022-08-27T02:00:52.039Z,101155.72
2022-08-27T02:01:59.748Z,101147.00
2022-08-27T02:03:02.892Z,101147.00
2022-08-27T02:04:05.646Z,101154.03
2022-08-27T02:05:08.400Z,101152.38
2022-08-27T02:06:13.001Z,101153.03
2022-08-27T02:07:14.636Z,101158.56
2022-08-27T02:08:18.564Z,101152.38
2022-08-27T02:09:20.257Z,101154.03
2022-08-27T02:10:25.524Z,101152.03
2022-08-27T02:11:27.666Z,101156.22
2022-08-27T02:12:31.673Z,101157.06
2022-08-27T02:13:34.179Z,101158.72
2022-08-27T02:14:36.931Z,101155.03
2022-08-27T02:15:39.668Z,101161.25
2022-08-27T02:16:52.077Z,101163.78
2022-08-27T02:17:56.151Z,101164.78
2022-08-27T02:18:58.172Z,101162.09
2022-08-27T02:20:01.406Z,101160.41
2022-08-27T02:21:03.098Z,101156.22
2022-08-27T02:22:05.889Z,101159.06
2022-08-27T02:23:08.788Z,101152.69
2022-08-27T02:24:11.535Z,101157.91
2022-08-27T02:25:15.364Z,101155.03
2022-08-27T02:26:18.074Z,101157.56
2022-08-27T02:27:21.411Z,101157.56
2022-08-27T02:28:26.064Z,101157.38
2022-08-27T02:29:27.860Z,101153.00
2022-08-27T02:30:32.649Z,101155.03
2022-08-27T02:31:36.935Z,101161.41
2022-08-27T02:32:39.952Z,101151.66
2022-08-27T02:33:41.875Z,101155.38
2022-08-27T02:34:45.988Z,101149.97
2022-08-27T02:35:47.646Z,101151.84
2022-08-27T02:36:50.243Z,101154.38
2022-08-27T02:37:52.145Z,101153.53
2022-08-27T02:38:55.828Z,101150.81
2022-08-27T02:39:58.847Z,101158.72
2022-08-27T02:41:01.490Z,101152.69
2022-08-27T02:42:03.680Z,101151.66
2022-08-27T02:43:06.752Z,101150.63
2022-08-27T02:44:11.193Z,101151.47
2022-08-27T02:45:17.704Z,101152.31
2022-08-27T02:46:20.282Z,101153.31
2022-08-27T02:47:21.948Z,101150.63
2022-08-27T02:48:25.446Z,101151.66
2022-08-27T02:49:27.232Z,101146.28
2022-08-27T02:50:30.288Z,101149.97
2022-08-27T02:51:31.970Z,101145.59
2022-08-27T02:52:36.552Z,101155.38
2022-08-27T02:53:39.726Z,101148.28
2022-08-27T02:54:42.441Z,101153.69
2022-08-27T02:55:44.988Z,101146.63
2022-08-27T02:56:47.646Z,101149.31
2022-08-27T02:57:49.553Z,101149.97
2022-08-27T02:58:52.428Z,101147.28
2022-08-27T02:59:55.400Z,101148.97
2022-08-27T03:00:58.391Z,101140.91
2022-08-27T03:02:00.148Z,101147.28
2022-08-27T03:03:03.828Z,101137.34
2022-08-27T03:04:05.467Z,101142.56
2022-08-27T03:05:10.088Z,101144.25
2022-08-27T03:06:11.830Z,101142.56
2022-08-27T03:07:18.894Z,101147.94
2022-08-27T03:08:20.844Z,101151.66
2022-08-27T03:09:23.497Z,101142.91
2022-08-27T03:10:25.298Z,101146.63
2022-08-27T03:11:27.997Z,101146.13
2022-08-27T03:12:29.613Z,101147.34
2022-08-27T03:13:32.180Z,101148.34
2022-08-27T03:14:33.782Z,101146.66
2022-08-27T03:15:37.925Z,101144.97
2022-08-27T03:16:39.894Z,101139.41
2022-08-27T03:18:02.689Z,101141.94
2022-08-27T03:19:06.649Z,101138.56
2022-08-27T03:20:12.089Z,101143.97
2022-08-27T03:21:19.308Z,101139.75
2022-08-27T03:22:21.089Z,101140.13
2022-08-27T03:23:26.900Z,101145.66
2022-08-27T03:24:28.486Z,101137.59
2022-08-27T03:25:32.127Z,101141.31
2022-08-27T03:26:34.737Z,101138.78
2022-08-27T03:27:37.591Z,101157.63
2022-08-27T03:28:39.351Z,101150.75
2022-08-27T03:29:41.902Z,101154.44
2022-08-27T03:30:48.572Z,101153.59
2022-08-27T03:31:51.125Z,101153.44
2022-08-27T03:32:52.889Z,101149.03
2022-08-27T03:33:57.172Z,101156.13
2022-08-27T03:34:59.095Z,101154.94
2022-08-27T03:36:01.689Z,101152.25
2022-08-27T03:37:04.314Z,101154.78
2022-08-27T03:38:05.956Z,101161.16
2022-08-27T03:39:08.561Z,101162.84
2022-08-27T03:40:11.176Z,101167.03
2022-08-27T03:41:18.010Z,101156.28
2022-08-27T03:42:19.599Z,101157.97
2022-08-27T03:43:23.513Z,101152.56
2022-08-27T03:44:25.202Z,101157.13
2022-08-27T03:45:27.924Z,101159.81
2022-08-27T03:46:31.083Z,101153.38
2022-08-27T03:47:34.622Z,101154.22
2022-08-27T03:48:36.395Z,101145.50
2022-08-27T03:49:39.231Z,101151.72
2022-08-27T03:50:43.214Z,101150.03
2022-08-27T03:51:46.213Z,101147.50
2022-08-27T03:52:48.301Z,101153.94
2022-08-27T03:53:51.065Z,101151.41
2022-08-27T03:54:53.000Z,101150.06
2022-08-27T03:55:56.341Z,101151.09
2022-08-27T03:56:57.917Z,101146.69
2022-08-27T03:58:00.491Z,101144.34
2022-08-27T03:59:02.085Z,101139.31
2022-08-27T04:00:07.296Z,101143.00
2022-08-27T04:01:09.385Z,101135.97
2022-08-27T04:02:14.940Z,101143.00
2022-08-27T04:03:16.675Z,101135.97
2022-08-27T04:04:19.263Z,101137.97
2022-08-27T04:05:22.465Z,101144.03
2022-08-27T04:06:25.042Z,101142.34
2022-08-27T04:07:26.721Z,101141.63
2022-08-27T04:08:30.857Z,101144.53
2022-08-27T04:09:32.445Z,101144.03
2022-08-27T04:10:35.177Z,101141.47
2022-08-27T04:11:37.059Z,101140.47
2022-08-27T04:12:41.500Z,101146.56
2022-08-27T04:13:43.924Z,101146.56
2022-08-27T04:14:46.927Z,101148.56
2022-08-27T04:15:51.159Z,101151.25
2022-08-27T04:16:54.348Z,101154.78
2022-08-27T04:17:57.492Z,101153.94
2022-08-27T04:19:00.510Z,101160.16
2022-08-27T04:20:24.976Z,101150.06
2022-08-27T04:21:26.719Z,101152.75
2022-08-27T04:22:28.595Z,101153.78
2022-08-27T04:23:31.498Z,101154.78
2022-08-27T04:24:34.875Z,101150.41
2022-08-27T04:25:40.985Z,101156.81
2022-08-27T04:26:45.627Z,101152.44
2022-08-27T04:27:48.343Z,101157.81
2022-08-27T04:28:51.211Z,101157.16
2022-08-27T04:29:55.819Z,101152.78
2022-08-27T04:30:57.507Z,101164.56
2022-08-27T04:32:00.166Z,101160.16
2022-08-27T04:33:03.118Z,101159.50
2022-08-27T04:34:07.605Z,101158.66
2022-08-27T04:35:11.672Z,101157.00
2022-08-27T04:36:14.932Z,101158.16
2022-08-27T04:37:23.360Z,101153.97
2022-08-27T04:38:26.158Z,101162.22
2022-08-27T04:39:31.599Z,101156.84
2022-08-27T04:40:51.719Z,101160.19
2022-08-27T04:41:57.593Z,101154.81
2022-08-27T04:42:59.237Z,101167.09
2022-08-27T04:44:05.092Z,101168.94
2022-08-27T04:45:07.684Z,101166.44
2022-08-27T04:46:10.275Z,101170.97
2022-08-27T04:47:13.287Z,101165.41
2022-08-27T04:48:19.443Z,101172.47
2022-08-27T04:49:21.270Z,101176.66
2022-08-27T04:50:24.379Z,101178.34
2022-08-27T04:51:26.383Z,101177.50
2022-08-27T04:52:29.792Z,101177.69
2022-08-27T04:53:31.396Z,101178.53
2022-08-27T04:54:34.407Z,101175.00
2022-08-27T04:55:41.580Z,101176.00
2022-08-27T04:56:44.161Z,101177.69
2022-08-27T04:57:45.801Z,101177.69
2022-08-27T04:58:48.441Z,101176.50
2022-08-27T04:59:51.071Z,101182.41
2022-08-27T05:00:55.876Z,101178.69
2022-08-27T05:01:58.461Z,101174.31
2022-08-27T05:03:00.120Z,101172.63
2022-08-27T05:04:04.673Z,101178.00
2022-08-27T05:05:08.312Z,101186.09
2022-08-27T05:06:10.469Z,101178.84
2022-08-27T05:07:13.019Z,101178.00
2022-08-27T05:08:14.785Z,101178.19
2022-08-27T05:09:18.786Z,101183.59
2022-08-27T05:10:21.701Z,101181.03
2022-08-27T05:11:28.315Z,101182.03
2022-08-27T05:12:29.914Z,101180.53
2022-08-27T05:13:32.912Z,101184.94
2022-08-27T05:14:35.842Z,101181.38
2022-08-27T05:15:48.833Z,101185.06
2022-08-27T05:16:50.553Z,101186.91
2022-08-27T05:17:53.641Z,101190.47
2022-08-27T05:18:55.804Z,101190.31
2022-08-27T05:19:59.856Z,101189.31
2022-08-27T05:21:01.677Z,101194.34
2022-08-27T05:22:04.444Z,101195.16
2022-08-27T05:23:06.093Z,101194.34
2022-08-27T05:24:08.920Z,101196.19
2022-08-27T05:25:11.203Z,101197.19
2022-08-27T05:26:13.955Z,101204.44
2022-08-27T05:27:15.675Z,101203.56
2022-08-27T05:28:21.381Z,101202.91
2022-08-27T05:29:31.626Z,101203.91
2022-08-27T05:30:36.791Z,101201.56
2022-08-27T05:31:40.782Z,101198.88
2022-08-27T05:32:42.898Z,101203.25
2022-08-27T05:33:46.359Z,101200.56
2022-08-27T05:34:48.165Z,101204.09
2022-08-27T05:35:53.753Z,101204.25
2022-08-27T05:36:55.336Z,101199.91
2022-08-27T05:38:00.186Z,101201.75
2022-08-27T05:39:04.537Z,101195.69
2022-08-27T05:40:08.454Z,101203.59
2022-08-27T05:41:12.772Z,101194.53
2022-08-27T05:42:15.657Z,101199.06
2022-08-27T05:43:18.522Z,101199.22
2022-08-27T05:45:44.337Z,101204.44
2022-08-27T05:46:46.902Z,101203.25
2022-08-27T05:47:48.849Z,101204.94
2022-08-27T05:48:52.633Z,101201.56
2022-08-27T05:49:55.142Z,101208.97
2022-08-27T05:50:59.203Z,101203.59
2022-08-27T05:52:00.800Z,101199.91
2022-08-27T05:53:03.396Z,101206.09
2022-08-27T05:54:08.822Z,101204.09
2022-08-27T05:55:12.347Z,101202.25
2022-08-27T05:56:15.667Z,101203.91
2022-08-27T05:57:18.251Z,101209.16
2022-08-27T05:58:38.667Z,101206.97
2022-08-27T05:59:58.888Z,101205.94
2022-08-27T06:01:10.101Z,101208.47
2022-08-27T06:02:13.170Z,101200.22
2022-08-27T06:03:14.757Z,101204.78
2022-08-27T06:04:18.851Z,101196.84
2022-08-27T06:05:20.794Z,101200.53
2022-08-27T06:06:24.931Z,101198.88
2022-08-27T06:07:26.592Z,101201.38
2022-08-27T06:08:29.257Z,101198.53
2022-08-27T06:09:30.864Z,101200.22
2022-08-27T06:10:33.613Z,101197.53
2022-08-27T06:11:36.213Z,101202.75
2022-08-27T06:12:39.023Z,101199.91
2022-08-27T06:13:40.811Z,101200.72
2022-08-27T06:14:46.251Z,101195.31
2022-08-27T06:15:47.923Z,101191.97
2022-08-27T06:16:50.754Z,101199.03
2022-08-27T06:17:53.028Z,101193.66
2022-08-27T06:18:57.524Z,101205.28
2022-08-27T06:19:59.303Z,101200.72
2022-08-27T06:21:02.061Z,101202.41
2022-08-27T06:22:10.636Z,101202.41
2022-08-27T06:23:13.642Z,101204.94
2022-08-27T06:24:15.232Z,101208.28
2022-08-27T06:25:18.103Z,101201.91
2022-08-27T06:26:22.769Z,101200.88
2022-08-27T06:27:25.537Z,101204.75
2022-08-27T06:28:29.562Z,101199.56
2022-08-27T06:29:34.983Z,101204.25
2022-08-27T06:30:36.596Z,101202.41
2022-08-27T06:31:40.684Z,101203.25
2022-08-27T06:32:42.518Z,101212.66
2022-08-27T06:33:46.305Z,101204.28
2022-08-27T06:34:48.626Z,101204.28
2022-08-27T06:35:51.522Z,101210.16
2022-08-27T06:36:53.500Z,101202.09
2022-08-27T06:37:57.445Z,101209.81
2022-08-27T06:38:59.875Z,101206.13
2022-08-27T06:40:02.467Z,101209.63
2022-08-27T06:41:04.432Z,101204.44
2022-08-27T06:42:07.685Z,101208.97
2022-08-27T06:43:09.306Z,101201.91
2022-08-27T06:44:13.054Z,101209.13
2022-08-27T06:45:15.075Z,101211.00
2022-08-27T06:46:19.968Z,101205.44
2022-08-27T06:47:22.559Z,101208.31
2022-08-27T06:48:24.409Z,101215.38
2022-08-27T06:49:27.123Z,101222.09
2022-08-27T06:50:28.829Z,101209.47
2022-08-27T06:51:33.543Z,101215.72
2022-08-27T06:52:35.235Z,101214.03
2022-08-27T06:53:39.211Z,101214.03
2022-08-27T06:54:40.857Z,101215.03
2022-08-27T06:55:44.224Z,101221.94
2022-08-27T06:56:46.219Z,101213.88
2022-08-27T06:57:48.836Z,101207.78
2022-08-27T06:58:52.651Z,101206.28
2022-08-27T06:59:55.262Z,101211.81
2022-08-27T07:00:57.192Z,101212.84
2022-08-27T07:01:59.979Z,101209.31
2022-08-27T07:03:03.889Z,101207.28
2022-08-27T07:04:09.112Z,101206.28
2022-08-27T07:05:11.924Z,101201.91
2022-08-27T07:06:16.389Z,101205.28
2022-08-27T07:07:31.742Z,101213.16
2022-08-27T07:08:39.670Z,101205.09
2022-08-27T07:09:42.218Z,101208.63
2022-08-27T07:10:43.950Z,101211.16
2022-08-27T07:11:46.532Z,101210.31
2022-08-27T07:12:48.152Z,101215.72
2022-08-27T07:13:51.360Z,101209.47
2022-08-27T07:14:53.059Z,101207.44
2022-08-27T07:15:56.091Z,101209.28
2022-08-27T07:16:57.692Z,101211.97
2022-08-27T07:18:00.484Z,101203.25
2022-08-27T07:19:05.336Z,101205.94
2022-08-27T07:20:09.541Z,101199.56
2022-08-27T07:21:11.315Z,101208.28
2022-08-27T07:22:14.221Z,101207.28
2022-08-27T07:23:15.873Z,101204.59
2022-08-27T07:24:19.790Z,101205.25
2022-08-27T07:25:21.768Z,101205.25
2022-08-27T07:26:24.918Z,101209.63
2022-08-27T07:27:27.606Z,101209.28
2022-08-27T07:28:30.740Z,101203.56
2022-08-27T07:29:32.846Z,101204.06
2022-08-27T07:30:37.463Z,101208.94
2022-08-27T07:31:41.953Z,101203.84
2022-08-27T07:32:44.673Z,101206.88
2022-08-27T07:33:52.378Z,101209.22
2022-08-27T07:34:55.851Z,101216.13
2022-08-27T07:35:57.523Z,101214.09
2022-08-27T07:37:00.144Z,101216.78
2022-08-27T07:38:01.837Z,101211.59
2022-08-27T07:39:04.899Z,101218.63
2022-08-27T07:40:10.252Z,101215.78
2022-08-27T07:41:15.431Z,101218.28
2022-08-27T07:42:35.550Z,101216.44
2022-08-27T07:43:56.400Z,101212.88
2022-08-27T07:44:59.022Z,101216.97
2022-08-27T07:46:02.066Z,101221.66
2022-08-27T07:47:04.703Z,101209.41
2022-08-27T07:48:07.373Z,101213.94
2022-08-27T07:49:13.800Z,101220.34
2022-08-27T07:50:16.385Z,101223.06
2022-08-27T07:51:20.782Z,101215.97
2022-08-27T07:52:26.449Z,101214.97
2022-08-27T07:53:28.307Z,101221.00
2022-08-27T07:54:30.939Z,101223.16
2022-08-27T07:55:35.878Z,101216.63
2022-08-27T07:56:38.471Z,101220.63
2022-08-27T07:57:40.869Z,101221.97
2022-08-27T07:58:44.023Z,101221.63
2022-08-27T07:59:48.088Z,101218.91
2022-08-27T08:00:49.865Z,101219.75
2022-08-27T08:01:52.821Z,101220.59
2022-08-27T08:02:54.542Z,101222.94
2022-08-27T08:03:57.822Z,101223.59
2022-08-27T08:04:59.848Z,101225.97
2022-08-27T08:06:05.920Z,101219.41
2022-08-27T08:07:07.534Z,101222.59
2022-08-27T08:08:10.414Z,101222.22
2022-08-27T08:09:12.373Z,101219.88
2022-08-27T08:10:15.128Z,101224.75
2022-08-27T08:11:18.763Z,101227.94
2022-08-27T08:12:26.607Z,101227.56
2022-08-27T08:13:30.079Z,101218.47
2022-08-27T08:14:33.218Z,101223.88
2022-08-27T08:15:35.541Z,101224.53
2022-08-27T08:16:38.247Z,101220.13
2022-08-27T08:17:40.372Z,101227.56
2022-08-27T08:18:43.246Z,101222.19
2022-08-27T08:19:57.220Z,101225.88
2022-08-27T08:21:11.169Z,101222.53
2022-08-27T08:22:12.917Z,101232.28
2022-08-27T08:23:15.950Z,101223.19
2022-08-27T08:24:18.274Z,101227.56
2022-08-27T08:25:21.025Z,101227.03
2022-08-27T08:26:24.198Z,101234.78
2022-08-27T08:27:27.537Z,101235.25
2022-08-27T08:28:31.461Z,101231.53
2022-08-27T08:29:34.234Z,101234.94
2022-08-27T08:30:35.950Z,101231.88
2022-08-27T08:31:38.644Z,101235.06
2022-08-27T08:32:40.363Z,101236.34
2022-08-27T08:33:43.032Z,101239.72
2022-08-27T08:34:44.647Z,101235.63
2022-08-27T08:35:48.773Z,101238.19
2022-08-27T08:36:54.916Z,101238.81
2022-08-27T08:37:57.952Z,101238.81
2022-08-27T08:38:59.701Z,101239.50
2022-08-27T08:40:03.238Z,101241.16
2022-08-27T08:41:07.232Z,101244.53
2022-08-27T08:42:28.038Z,101250.94
2022-08-27T08:43:33.499Z,101243.22
2022-08-27T08:44:41.574Z,101243.56
2022-08-27T08:45:45.158Z,101240.59
2022-08-27T08:46:53.513Z,101244.78
2022-08-27T08:48:04.942Z,101241.88
2022-08-27T08:49:16.294Z,101245.25
2022-08-27T08:50:26.175Z,101244.91
2022-08-27T08:51:34.140Z,101247.41
2022-08-27T08:52:43.629Z,101240.81
2022-08-27T08:53:53.242Z,101245.88
2022-08-27T08:54:58.164Z,101247.53
2022-08-27T08:56:04.383Z,101249.22
2022-08-27T08:57:18.667Z,101252.56
2022-08-27T08:58:34.493Z,101249.88
2022-08-27T08:59:38.767Z,101251.56
2022-08-27T09:00:44.582Z,101253.41
2022-08-27T09:01:49.669Z,101253.41
2022-08-27T09:02:54.741Z,101251.56
2022-08-27T09:04:00.424Z,101251.56
2022-08-27T09:05:07.288Z,101254.25
2022-08-27T09:06:15.276Z,101253.06
2022-08-27T09:07:26.187Z,101252.88
2022-08-27T09:08:37.922Z,101251.03
2022-08-27T09:09:51.801Z,101256.59
2022-08-27T09:11:00.812Z,101249.72
2022-08-27T09:12:10.712Z,101258.81
2022-08-27T09:13:21.492Z,101262.72
2022-08-27T09:14:33.867Z,101259.38
2022-08-27T09:15:38.052Z,101265.78
2022-08-27T09:16:40.740Z,101253.97
2022-08-27T09:17:42.909Z,101266.63
2022-08-27T09:18:51.072Z,101262.06
2022-08-27T09:19:53.175Z,101262.06
2022-08-27T09:21:01.668Z,101264.75
2022-08-27T09:22:19.032Z,101256.66
2022-08-27T09:23:25.771Z,101259.38
2022-08-27T09:24:38.192Z,101258.53
2022-08-27T09:25:42.489Z,101255.13
2022-08-27T09:26:45.772Z,101258.69
2022-08-27T09:27:49.152Z,101260.38
2022-08-27T09:29:15.735Z,101265.78
2022-08-27T09:30:27.437Z,101260.38
2022-08-27T09:31:36.636Z,101261.22
2022-08-27T09:32:40.171Z,101261.03
2022-08-27T09:33:56.445Z,101268.94
2022-08-27T09:35:02.685Z,101261.69
2022-08-27T09:36:08.683Z,101263.34
2022-08-27T09:37:16.181Z,101259.66
2022-08-27T09:38:26.855Z,101259.28
2022-08-27T09:39:34.805Z,101257.25
2022-08-27T09:40:41.373Z,101257.72
2022-08-27T09:41:47.098Z,101255.72
2022-08-27T09:42:53.126Z,101253.28
2022-08-27T09:43:59.359Z,101251.13
2022-08-27T09:45:01.986Z,101258.84
2022-08-27T09:46:18.305Z,101260.19
2022-08-27T09:47:20.961Z,101258.13
2022-08-27T09:48:26.477Z,101262.34
2022-08-27T09:49:29.664Z,101262.34
2022-08-27T09:50:38.613Z,101254.03
2022-08-27T09:51:47.280Z,101252.03
2022-08-27T09:52:55.134Z,101258.72
2022-08-27T09:54:00.815Z,101255.84
2022-08-27T09:55:02.829Z,101254.63
2022-08-27T09:56:10.597Z,101265.06
2022-08-27T09:57:26.259Z,101265.06
2022-08-27T09:58:48.252Z,101261.72
2022-08-27T09:59:54.336Z,101263.75
2022-08-27T10:01:02.841Z,101260.41
2022-08-27T10:02:15.145Z,101271.56
2022-08-27T10:03:22.524Z,101268.69
2022-08-27T10:04:28.335Z,101265.81
2022-08-27T10:05:36.443Z,101265.66
2022-08-27T10:06:44.947Z,101265.28
2022-08-27T10:07:53.761Z,101269.47
2022-08-27T10:09:06.526Z,101262.69
2022-08-27T10:10:17.859Z,101263.16
2022-08-27T10:11:25.948Z,101268.19
2022-08-27T10:12:34.976Z,101265.31
2022-08-27T10:13:46.632Z,101262.22
2022-08-27T10:14:52.555Z,101264.56
2022-08-27T10:16:09.684Z,101259.84
2022-08-27T10:17:20.243Z,101261.31
2022-08-27T10:18:32.884Z,101264.69
2022-08-27T10:19:54.220Z,101267.00
2022-08-27T10:21:05.997Z,101267.47
2022-08-27T10:22:27.277Z,101267.31
2022-08-27T10:23:35.355Z,101268.53
2022-08-27T10:24:51.859Z,101267.00
2022-08-27T10:26:00.168Z,101264.50
2022-08-27T10:27:10.467Z,101266.38
2022-08-27T10:28:24.405Z,101266.53
2022-08-27T10:29:38.356Z,101267.56
2022-08-27T10:30:59.452Z,101264.03
2022-08-27T10:32:11.715Z,101263.03
2022-08-27T10:33:27.119Z,101276.31
2022-08-27T10:34:43.347Z,101270.06
2022-08-27T10:35:55.005Z,101258.44
2022-08-27T10:37:07.954Z,101265.72
2022-08-27T10:38:15.742Z,101265.88
2022-08-27T10:39:40.059Z,101261.50
2022-08-27T10:40:50.849Z,101256.94
2022-08-27T10:42:11.514Z,101262.19
2022-08-27T10:43:28.357Z,101263.03
2022-08-27T10:44:52.390Z,101263.03
2022-08-27T10:46:05.017Z,101259.09
2022-08-27T10:47:16.591Z,101263.13
2022-08-27T10:48:30.046Z,101266.09
2022-08-27T10:49:43.629Z,101260.97
2022-08-27T10:50:50.970Z,101258.56
2022-08-27T10:52:04.222Z,101256.38
2022-08-27T10:53:19.250Z,101258.50
2022-08-27T10:54:28.196Z,101256.09
2022-08-27T10:55:33.996Z,101262.44
2022-08-27T10:56:40.319Z,101259.00
2022-08-27T10:58:07.795Z,101258.63
2022-08-27T10:59:25.499Z,101264.66
2022-08-27T11:00:34.595Z,101253.66
2022-08-27T11:01:48.524Z,101259.72
2022-08-27T11:02:55.108Z,101259.72
2022-08-27T11:04:04.118Z,101259.53
2022-08-27T11:05:16.265Z,101266.28
2022-08-27T11:06:25.779Z,101257.78
2022-08-27T11:07:33.500Z,101259.91
2022-08-27T11:08:41.819Z,101264.94
2022-08-27T11:09:50.798Z,101265.78
2022-08-27T11:11:13.694Z,101263.53
2022-08-27T11:12:29.136Z,101252.53
2022-08-27T11:13:34.113Z,101255.50
2022-08-27T11:14:44.237Z,101251.41
2022-08-27T11:15:49.227Z,101255.41
2022-08-27T11:17:14.151Z,101260.22
2022-08-27T11:18:22.206Z,101257.34
2022-08-27T11:19:32.635Z,101253.81
2022-08-27T11:20:41.291Z,101251.94
2022-08-27T11:21:48.354Z,101251.94
2022-08-27T11:22:56.126Z,101248.19
2022-08-27T11:24:02.630Z,101253.59
2022-08-27T11:25:15.004Z,101254.66
2022-08-27T11:26:16.691Z,101250.88
2022-08-27T11:27:24.880Z,101257.34
2022-08-27T11:28:37.308Z,101245.34
2022-08-27T11:29:49.540Z,101245.78
2022-08-27T11:31:00.687Z,101255.22
2022-08-27T11:32:11.992Z,101259.19
2022-08-27T11:33:21.244Z,101253.59
2022-08-27T11:34:27.430Z,101252.38
2022-08-27T11:35:41.791Z,101251.34
2022-08-27T11:37:06.031Z,101255.53
2022-08-27T11:38:30.042Z,101256.00
2022-08-27T11:39:51.869Z,101244.78
2022-08-27T11:41:06.568Z,101243.56
2022-08-27T11:42:15.013Z,101247.00
2022-08-27T11:43:20.467Z,101247.06
2022-08-27T11:44:26.643Z,101250.47
2022-08-27T11:45:31.141Z,101245.34
2022-08-27T11:46:44.719Z,101242.22
2022-08-27T11:47:56.761Z,101254.53
2022-08-27T11:49:01.714Z,101246.03
2022-08-27T11:50:08.515Z,101246.66
2022-08-27T11:51:14.311Z,101246.88
2022-08-27T11:52:25.092Z,101249.19
2022-08-27T11:53:30.735Z,101246.13
2022-08-27T11:54:49.204Z,101242.63
2022-08-27T11:55:50.773Z,101246.63
2022-08-27T11:56:53.494Z,101248.31
2022-08-27T11:58:08.761Z,101246.41
2022-08-27T11:59:21.293Z,101249.97
2022-08-27T12:00:34.380Z,101258.31
2022-08-27T12:01:38.559Z,101248.66
2022-08-27T12:02:40.903Z,101254.47
2022-08-27T12:03:44.924Z,101247.41
2022-08-27T12:04:47.482Z,101259.09
2022-08-27T12:06:11.167Z,101247.00
2022-08-27T12:07:29.281Z,101242.88
2022-08-27T12:08:35.141Z,101237.25
2022-08-27T12:09:54.169Z,101238.72
2022-08-27T12:11:12.581Z,101245.44
2022-08-27T12:12:20.575Z,101241.31
2022-08-27T12:13:29.515Z,101244.47
2022-08-27T12:14:44.563Z,101238.38
2022-08-27T12:16:04.610Z,101239.22
2022-08-27T12:17:14.382Z,101239.63
2022-08-27T12:18:36.629Z,101237.94
2022-08-27T12:19:56.304Z,101234.59
2022-08-27T12:21:10.547Z,101239.19
2022-08-27T12:22:25.217Z,101237.53
2022-08-27T12:23:42.599Z,101243.75
2022-08-27T12:24:52.027Z,101238.34
2022-08-27T12:26:00.625Z,101239.00
2022-08-27T12:27:16.920Z,101231.88
2022-08-27T12:28:26.855Z,101241.69
2022-08-27T12:29:41.022Z,101241.03
2022-08-27T12:30:50.317Z,101236.03
2022-08-27T12:32:01.469Z,101236.22
2022-08-27T12:33:12.752Z,101236.41